Osg Courageous — WDF7122 — position and weather

sailwx.info

Track history (hours):
 
Tides and Currents Weather Stations Pressure Air Temp Water Temp Dewpoint Dewpoint Depression Visibility Wind Speed Wind Dir Waves Ship Positions

Osg Courageous

Owner: OSG Ship Management, Inc, Tampa, FL. More information available from US FCC via Universal Licensing System and Coast Guard Vessel Documentation Center.

Last reported at 2015-Jul-26 22:14 UTC. Time now 2015-Jul-28 05:47 UTC.
Position N 29°58' W 090°03'.

Length 187 m; draft 11 m.

Type: Tanker. MMSI: 367481310.

Date/timePositionNaut miles runAvg speedWind from/ knotsBaromVisibWave heightAir tempDewpointWater temp
2015-Jul-26 22:14N 29°58' W 090°03'20 0.5
2015-Jul-25 05:11N 29°60' W 090°26'4 5.5
2015-Jul-25 04:34N 29°57' W 090°23'19 0.8
2015-Jul-24 03:29N 29°57' W 090°02'0 0.0
2015-Jul-23 17:33N 29°57' W 090°01'  
2015-Jul-20 12:32N 25°28' W 080°02'8 8.6
2015-Jul-20 11:33N 25°36' W 080°01'9 8.6
2015-Jul-20 10:33N 25°45' W 080°00'8 7.6
2015-Jul-20 09:33N 25°52' W 080°01'8 8.0
2015-Jul-20 08:33N 26°00' W 080°00'8 8.3
2015-Jul-20 07:33N 26°08' W 079°60'8 8.1
2015-Jul-20 06:33N 26°17' W 079°59'8 8.4
2015-Jul-20 05:33N 26°25' W 079°59'8 8.1
2015-Jul-20 04:33N 26°33' W 079°58'8 7.9
2015-Jul-20 03:33N 26°41' W 079°57'9 7.6
2015-Jul-20 02:21N 26°50' W 079°57'6 7.3
2015-Jul-20 01:33N 26°56' W 079°57'7 7.1
2015-Jul-20 00:33N 27°03' W 079°57'  
Track history (hours):
 
Tides and Currents Weather Stations Pressure Air Temp Water Temp Dewpoint Dewpoint Depression Visibility Wind Speed Wind Dir Waves Ship Positions

Osg Courageous

Owner: OSG Ship Management, Inc, Tampa, FL. More information available from US FCC via Universal Licensing System and Coast Guard Vessel Documentation Center.

Last reported at 2015-Jul-26 22:14 UTC. Time now 2015-Jul-28 05:47 UTC.
Position N 29°58' W 090°03'.

Length 187 m; draft 11 m.

Type: Tanker. MMSI: 367481310.

Date/timePositionNaut miles runAvg speedWind from/ knotsBaromVisibWave heightAir tempDewpointWater temp
2015-Jul-26 22:14N 29°58' W 090°03'20 0.5
2015-Jul-25 05:11N 29°60' W 090°26'4 5.5
2015-Jul-25 04:34N 29°57' W 090°23'19 0.8
2015-Jul-24 03:29N 29°57' W 090°02'0 0.0
2015-Jul-23 17:33N 29°57' W 090°01'  
2015-Jul-20 12:32N 25°28' W 080°02'8 8.6
2015-Jul-20 11:33N 25°36' W 080°01'9 8.6
2015-Jul-20 10:33N 25°45' W 080°00'8 7.6
2015-Jul-20 09:33N 25°52' W 080°01'8 8.0
2015-Jul-20 08:33N 26°00' W 080°00'8 8.3
2015-Jul-20 07:33N 26°08' W 079°60'8 8.1
2015-Jul-20 06:33N 26°17' W 079°59'8 8.4
2015-Jul-20 05:33N 26°25' W 079°59'8 8.1
2015-Jul-20 04:33N 26°33' W 079°58'8 7.9
2015-Jul-20 03:33N 26°41' W 079°57'9 7.6
2015-Jul-20 02:21N 26°50' W 079°57'6 7.3
2015-Jul-20 01:33N 26°56' W 079°57'7 7.1
2015-Jul-20 00:33N 27°03' W 079°57'  

Dump ship's entire track history